Time;durP1;ratioP1;P1;durP2;ratioP2;P2;SDS_P1;SDS_P2;PMS_P1;PMS_P2;Temp;Humidity;BMP_temperature;BMP_pressure;BME280_temperature;BME280_humidity;BME280_pressure;Samples;Min_cycle;Max_cycle;Signal;HPM_P1;HPM_P2
2024/01/15 07:01:35;;;;;;;0.30;0.30;;;3.60;99.90;5.60;100019.00;;;;6137546;22;4155129;-73
2024/01/15 07:04:17;;;;;;;0.33;0.33;;;3.60;99.90;6.20;100040.00;;;;6278456;22;20145;-75
2024/01/15 07:07:03;;;;;;;0.40;0.40;;;3.80;99.90;6.70;100050.00;;;;6251758;22;20218;-74
2024/01/15 07:09:58;;;;;;;0.20;0.20;;;4.10;99.90;6.50;100077.00;;;;6226476;22;20195;-74
2024/01/15 07:12:53;;;;;;;0.70;0.70;;;4.20;99.90;6.20;100051.00;;;;6188827;23;20259;-74
2024/01/15 07:15:42;;;;;;;0.20;0.20;;;4.10;99.90;6.80;100035.00;;;;6155937;23;20166;-74
2024/01/15 07:18:28;;;;;;;0.20;0.20;;;4.10;99.90;7.40;100077.00;;;;6245986;22;20264;-74
2024/01/15 07:21:17;;;;;;;0.33;0.33;;;4.40;99.90;7.40;100068.00;;;;6278547;22;20176;-74
2024/01/15 07:23:56;;;;;;;0.30;0.30;;;4.70;99.90;7.60;100078.00;;;;6242666;22;20273;-73
2024/01/15 07:26:32;;;;;;;0.73;0.40;;;4.70;99.90;7.20;100089.00;;;;6277484;22;20465;-74
2024/01/15 07:29:06;;;;;;;0.20;0.20;;;4.80;99.90;7.10;100084.00;;;;6251188;22;20456;-73
2024/01/15 07:31:40;;;;;;;0.83;0.83;;;4.80;99.90;7.70;100088.00;;;;6251011;22;20147;-73
2024/01/15 07:34:35;;;;;;;0.20;0.20;;;4.80;99.90;7.60;100038.00;;;;6277994;22;20546;-74
2024/01/15 07:37:44;;;;;;;0.37;0.37;;;4.90;99.90;7.70;100114.00;;;;6248173;22;20157;-74
2024/01/15 07:40:26;;;;;;;0.30;0.30;;;4.90;99.90;7.40;100084.00;;;;6225849;22;20174;-74
2024/01/15 07:43:10;;;;;;;0.40;0.40;;;4.80;99.90;7.10;100099.00;;;;6251766;22;20172;-74
2024/01/15 07:45:46;;;;;;;0.30;0.30;;;4.70;99.90;7.50;100098.00;;;;6251158;22;20163;-72
2024/01/15 07:48:30;;;;;;;0.50;0.50;;;4.80;99.90;6.50;100046.00;;;;6250832;22;20196;-75
2024/01/15 07:51:07;;;;;;;3.73;0.53;;;4.70;99.90;6.90;100104.00;;;;6251293;22;20235;-74
2024/01/15 07:53:56;;;;;;;0.20;0.20;;;4.50;99.90;6.10;100053.00;;;;6249388;22;20221;-74
2024/01/15 07:56:59;;;;;;;4.43;1.53;;;4.30;99.90;5.90;100113.00;;;;6228173;22;20159;-74
2024/01/15 07:59:26;;;;;;;0.63;0.63;;;4.10;99.90;6.60;100041.00;;;;6247144;22;20537;-74
2024/01/15 08:02:04;;;;;;;0.60;0.60;;;4.20;99.90;6.30;100073.00;;;;6223121;23;20197;-74
2024/01/15 08:04:47;;;;;;;4.37;0.93;;;4.10;99.90;6.00;100118.00;;;;6247357;23;20203;-74
2024/01/15 08:07:42;;;;;;;4.30;0.90;;;4.00;99.90;6.40;100074.00;;;;6195014;23;20520;-74
2024/01/15 08:10:34;;;;;;;0.20;0.20;;;4.20;99.90;7.00;100124.00;;;;6220446;23;20136;-74
2024/01/15 08:13:20;;;;;;;1.20;0.77;;;4.50;99.90;6.40;100130.00;;;;6178523;23;20170;-73
2024/01/15 08:15:51;;;;;;;0.87;0.87;;;4.20;99.90;6.60;100078.00;;;;6247541;23;20139;-72
2024/01/15 08:18:22;;;;;;;2.00;0.77;;;4.30;99.90;6.10;100148.00;;;;6246944;23;20153;-74
2024/01/15 08:21:02;;;;;;;0.30;0.30;;;4.20;99.90;6.70;100144.00;;;;6247044;23;20143;-75
2024/01/15 08:23:31;;;;;;;0.20;0.20;;;4.20;99.90;7.20;100154.00;;;;6247127;23;20224;-75
2024/01/15 08:26:14;;;;;;;0.40;0.40;;;4.50;99.90;7.50;100143.00;;;;6247174;23;20150;-75
2024/01/15 08:29:03;;;;;;;0.30;0.30;;;4.70;99.90;7.90;100164.00;;;;6246359;23;20179;-75
2024/01/15 08:31:54;;;;;;;0.27;0.27;;;4.90;99.90;7.80;100111.00;;;;6194220;23;20549;-74
2024/01/15 08:35:13;;;;;;;7.70;1.20;;;4.90;99.90;7.00;100153.00;;;;6194866;23;20154;-74
2024/01/15 08:38:31;;;;;;;0.60;0.60;;;4.90;99.90;5.90;100146.00;;;;6195108;23;20235;-74
2024/01/15 08:41:27;;;;;;;0.20;0.20;;;4.40;99.90;5.60;100137.00;;;;6220520;23;20147;-74
2024/01/15 08:44:30;;;;;;;0.20;0.20;;;3.90;99.90;6.80;100135.00;;;;6219723;23;20178;-74
2024/01/15 08:47:35;;;;;;;0.27;0.27;;;4.00;99.90;6.50;100133.00;;;;6219607;23;20185;-74
2024/01/15 08:50:40;;;;;;;0.20;0.20;;;4.00;99.90;6.30;100144.00;;;;6219837;23;20550;-74
2024/01/15 08:53:21;;;;;;;0.83;0.83;;;4.00;99.90;5.90;100141.00;;;;6216893;23;20245;-74
2024/01/15 08:56:27;;;;;;;0.60;0.60;;;3.80;99.90;5.60;100127.00;;;;6218514;23;20463;-74
2024/01/15 09:00:08;;;;;;;1.97;0.90;;;3.70;99.90;5.50;100136.00;;;;6219953;23;20163;-74
2024/01/15 09:03:14;;;;;;;1.70;0.60;;;3.60;99.90;6.20;100159.00;;;;6243875;23;20174;-74
2024/01/15 09:06:00;;;;;;;0.20;0.20;;;3.90;99.90;6.80;100097.00;;;;6243741;23;20170;-74
2024/01/15 09:09:07;;;;;;;0.37;0.37;;;4.30;99.90;7.10;100169.00;;;;6244992;23;20190;-74
2024/01/15 09:12:15;;;;;;;0.20;0.20;;;4.50;99.90;6.80;100153.00;;;;6220318;23;20157;-74
2024/01/15 09:14:53;;;;;;;0.53;0.50;;;4.70;99.90;6.60;100169.00;;;;6244920;23;20142;-74
2024/01/15 09:17:21;;;;;;;0.73;0.30;;;4.40;99.90;5.90;100146.00;;;;6245071;23;20175;-73
2024/01/15 09:20:30;;;;;;;0.53;0.53;;;4.20;99.90;6.70;100159.00;;;;6244686;23;20143;-74
2024/01/15 09:22:59;;;;;;;0.30;0.30;;;4.40;99.90;7.30;100161.00;;;;6226162;23;20187;-74
2024/01/15 09:25:52;;;;;;;2.93;2.83;;;4.80;99.90;7.40;100188.00;;;;6244990;23;20151;-74
2024/01/15 09:28:59;;;;;;;0.77;0.47;;;5.00;99.90;6.90;100155.00;;;;6245281;23;20576;-72
2024/01/15 09:32:03;;;;;;;0.20;0.20;;;4.70;99.90;7.80;100181.00;;;;6226566;23;20480;-77
2024/01/15 09:35:19;;;;;;;0.20;0.20;;;5.10;99.90;8.10;100198.00;;;;6244981;23;20157;-83
2024/01/15 09:38:08;;;;;;;0.50;0.50;;;5.10;99.90;7.30;100209.00;;;;6243282;22;20163;-85
2024/01/15 09:41:05;;;;;;;0.30;0.30;;;5.20;99.90;7.80;100178.00;;;;6243196;23;20141;-81
2024/01/15 09:43:31;;;;;;;0.30;0.30;;;5.30;99.90;7.70;100172.00;;;;6239815;23;20245;-81
2024/01/15 09:46:22;;;;;;;0.20;0.20;;;5.20;99.90;7.80;100218.00;;;;6237512;23;20188;-81
2024/01/15 09:49:18;;;;;;;2.07;0.90;;;5.30;99.90;7.40;100197.00;;;;6243251;23;20480;-80
2024/01/15 09:52:08;;;;;;;0.30;0.30;;;5.20;99.90;8.00;100190.00;;;;6242400;23;20573;-82
2024/01/15 09:54:34;;;;;;;0.30;0.30;;;5.50;99.90;8.80;100146.00;;;;6243640;23;20144;-80
2024/01/15 09:57:23;;;;;;;0.60;0.60;;;5.90;99.90;8.60;100228.00;;;;6218394;23;20210;-81
2024/01/15 10:00:10;;;;;;;0.20;0.20;;;5.90;99.90;9.50;100241.00;;;;6245104;22;20155;-80
2024/01/15 10:03:14;;;;;;;1.13;0.30;;;6.40;99.90;9.00;100203.00;;;;6247326;22;20176;-80
2024/01/15 10:06:17;;;;;;;0.17;0.17;;;6.70;99.90;9.30;100250.00;;;;6248677;22;20156;-80
2024/01/15 10:08:54;;;;;;;0.20;0.20;;;6.60;99.90;9.70;100286.00;;;;6249452;22;20152;-80
2024/01/15 10:11:58;;;;;;;0.17;0.17;;;6.80;99.90;8.80;100289.00;;;;6248476;22;20601;-81
2024/01/15 10:15:17;;;;;;;0.87;0.50;;;6.50;99.90;9.70;100243.00;;;;6223662;22;20161;-69
2024/01/15 10:18:26;;;;;;;0.10;0.10;;;6.80;99.90;9.80;100303.00;;;;6248530;22;20149;-74
2024/01/15 10:34:17;;;;;;;0.80;0.80;;;5.30;99.90;7.80;100217.00;;;;5070639;28;20724;-76
2024/01/15 10:37:24;;;;;;;0.20;0.20;;;5.50;99.90;8.10;100236.00;;;;5039999;28;20208;-75
2024/01/15 10:40:28;;;;;;;0.30;0.30;;;5.80;99.90;8.40;100244.00;;;;5067768;28;20190;-74
2024/01/15 10:43:34;;;;;;;0.10;0.10;;;6.00;99.90;8.60;100252.00;;;;5047229;28;20664;-79
2024/01/15 10:46:36;;;;;;;0.30;0.30;;;6.00;99.90;8.90;100263.00;;;;5009754;28;20731;-77
2024/01/15 10:49:02;;;;;;;1.17;0.70;;;6.20;99.90;9.20;100277.00;;;;5036067;28;20218;-77
2024/01/15 10:51:28;;;;;;;0.10;0.10;;;6.60;99.90;9.80;100244.00;;;;5026507;28;20215;-76
2024/01/15 10:54:32;;;;;;;0.10;0.10;;;6.90;99.90;10.40;100271.00;;;;4998134;28;20188;-76
2024/01/15 10:57:31;;;;;;;0.87;0.60;;;7.20;99.90;9.70;100332.00;;;;5022968;28;20229;-70
2024/01/15 11:00:38;;;;;;;0.10;0.10;;;7.20;99.90;9.50;100352.00;;;;5080155;28;20181;-74
2024/01/15 11:03:25;;;;;;;0.37;0.37;;;6.80;99.90;9.00;100353.00;;;;5012994;28;20196;-75
2024/01/15 11:06:19;;;;;;;4.50;2.00;;;6.80;99.90;8.00;100297.00;;;;4995565;28;20189;-72
2024/01/15 11:12:31;;;;;;;0.10;0.10;;;5.90;99.90;9.10;100330.00;;;;5027662;28;20253;-76
2024/01/15 11:15:31;;;;;;;0.63;0.40;;;6.00;99.90;8.80;100322.00;;;;4993820;28;20201;-76
2024/01/15 11:18:58;;;;;;;0.20;0.20;;;6.10;99.90;9.20;100325.00;;;;5048304;28;20180;-76
2024/01/15 11:21:42;;;;;;;0.77;0.70;;;6.10;99.90;9.00;100332.00;;;;5036521;28;20289;-76
2024/01/15 11:24:39;;;;;;;0.57;0.57;;;6.10;99.90;8.80;100317.00;;;;4988479;28;20192;-75
2024/01/15 11:27:47;;;;;;;1.60;0.93;;;6.10;99.90;8.10;100301.00;;;;5053656;28;20192;-76
2024/01/15 11:30:43;;;;;;;0.10;0.10;;;5.80;99.90;8.40;100263.00;;;;4998730;28;20193;-74
2024/01/15 11:33:55;;;;;;;1.70;0.47;;;5.90;99.90;8.40;100288.00;;;;5012897;28;20227;-75
2024/01/15 11:36:50;;;;;;;0.23;0.23;;;5.90;99.90;8.80;100283.00;;;;4981450;28;20203;-75
2024/01/15 11:39:29;;;;;;;0.10;0.10;;;6.00;99.90;9.30;100296.00;;;;5038100;28;20194;-75
2024/01/15 11:45:33;;;;;;;0.10;0.10;;;6.90;99.90;10.40;100293.00;;;;5021589;28;20306;-76
2024/01/15 11:52:36;;;;;;;0.10;0.10;;;7.40;99.90;10.10;100326.00;;;;4974070;28;20219;-74
2024/01/15 11:55:44;;;;;;;0.30;0.30;;;7.30;99.90;10.20;100339.00;;;;5020222;28;20189;-78
2024/01/15 11:58:13;;;;;;;0.10;0.10;;;7.50;99.90;11.20;100339.00;;;;5056364;28;20182;-76
2024/01/15 12:01:58;;;;;;;0.30;0.30;;;7.90;99.90;11.20;100346.00;;;;5060445;28;20213;-77
2024/01/15 12:04:56;;;;;;;0.20;0.20;;;8.20;99.90;10.50;100320.00;;;;5028665;28;20637;-76
2024/01/15 12:07:50;;;;;;;0.30;0.20;;;7.80;99.90;10.40;100363.00;;;;5000920;28;20220;-76
2024/01/15 12:11:02;;;;;;;1.73;0.67;;;7.50;99.90;9.60;100335.00;;;;5049898;28;20686;-76
2024/01/15 12:14:03;;;;;;;0.80;0.40;;;7.20;99.90;8.40;100300.00;;;;5072724;28;20189;-76
2024/01/15 12:17:07;;;;;;;3.17;2.30;;;6.30;99.90;7.60;100302.00;;;;4992595;28;20202;-76
2024/01/15 12:20:18;;;;;;;0.37;0.37;;;5.80;99.90;8.00;100244.00;;;;5016859;28;20186;-76
2024/01/15 12:23:21;;;;;;;0.40;0.40;;;5.50;99.90;8.20;100254.00;;;;4961357;28;20436;-76
2024/01/15 12:25:47;;;;;;;0.20;0.20;;;5.60;99.90;8.50;100281.00;;;;5005840;28;20216;-76
2024/01/15 12:28:42;;;;;;;0.20;0.20;;;5.70;99.90;8.60;100288.00;;;;5048874;28;20703;-76
2024/01/15 12:31:29;;;;;;;0.30;0.30;;;5.90;99.90;7.70;100216.00;;;;4983511;28;20188;-76
2024/01/15 12:34:36;;;;;;;0.30;0.30;;;5.60;99.90;7.30;100308.00;;;;4944522;28;20278;-76
2024/01/15 12:37:29;;;;;;;0.30;0.30;;;5.50;99.90;7.40;100287.00;;;;4993677;28;20193;-76
2024/01/15 12:40:07;;;;;;;0.37;0.37;;;5.00;99.90;7.10;100288.00;;;;4990985;28;20198;-76
2024/01/15 12:43:01;;;;;;;0.30;0.30;;;4.80;99.90;6.70;100286.00;;;;5043848;28;20551;-76
2024/01/15 12:45:50;;;;;;;0.40;0.40;;;4.40;99.90;7.20;100251.00;;;;4987437;28;20239;-76
2024/01/15 12:48:56;;;;;;;0.30;0.30;;;4.40;99.90;6.80;100255.00;;;;5024834;28;20716;-76
2024/01/15 12:52:08;;;;;;;0.40;0.40;;;4.40;99.90;7.50;100285.00;;;;4958289;28;20224;-76
2024/01/15 12:55:20;;;;;;;0.40;0.40;;;4.70;99.90;6.80;100298.00;;;;5067433;28;20538;-76
2024/01/15 12:58:09;;;;;;;0.30;0.30;;;4.60;99.90;7.30;100288.00;;;;5016180;28;20635;-76
2024/01/15 13:01:14;;;;;;;0.30;0.30;;;4.70;99.90;6.90;100292.00;;;;5048434;28;20181;-76
2024/01/15 13:04:25;;;;;;;0.30;0.30;;;4.70;99.90;6.50;100295.00;;;;5073794;28;20222;-76
2024/01/15 13:07:08;;;;;;;0.30;0.30;;;4.50;99.90;5.70;100310.00;;;;4992382;28;20245;-76
2024/01/15 13:10:14;;;;;;;1.13;1.13;;;4.20;99.90;5.10;100261.00;;;;5064820;28;20668;-76
2024/01/15 13:13:17;;;;;;;0.30;0.30;;;3.70;99.90;5.80;100226.00;;;;4986082;28;20209;-76
2024/01/15 13:16:21;;;;;;;0.40;0.40;;;3.60;99.90;5.80;100283.00;;;;5002964;28;20184;-76
2024/01/15 13:19:12;;;;;;;0.37;0.37;;;3.60;99.90;6.20;100248.00;;;;4986601;28;20192;-76
2024/01/15 13:22:00;;;;;;;1.33;0.50;;;3.60;99.90;6.60;100281.00;;;;5032620;28;20181;-76
2024/01/15 13:24:51;;;;;;;0.40;0.40;;;3.90;99.90;6.80;100286.00;;;;5050867;28;20231;-76
2024/01/15 13:28:17;;;;;;;0.30;0.30;;;4.00;99.90;6.50;100291.00;;;;4999705;28;20190;-73
2024/01/15 13:31:05;;;;;;;0.50;0.50;;;4.00;99.90;7.30;100244.00;;;;4981625;28;20262;-76
2024/01/15 13:34:07;;;;;;;0.40;0.40;;;4.30;99.90;7.70;100298.00;;;;5017761;28;20208;-76
2024/01/15 13:37:18;;;;;;;0.40;0.40;;;4.70;99.90;8.40;100281.00;;;;5007867;28;20517;-77
2024/01/15 13:40:45;;;;;;;0.40;0.40;;;5.10;99.90;8.90;100266.00;;;;5051617;28;20185;-77
2024/01/15 13:43:50;;;;;;;0.40;0.40;;;5.60;99.90;8.80;100308.00;;;;4964236;28;20237;-77
2024/01/15 13:47:09;;;;;;;0.40;0.40;;;5.90;99.90;8.50;100321.00;;;;4966753;28;20204;-76
2024/01/15 13:50:11;;;;;;;0.40;0.40;;;5.80;99.90;7.70;100320.00;;;;4985768;28;20289;-78
2024/01/15 13:53:17;;;;;;;0.40;0.40;;;5.40;99.90;7.30;100309.00;;;;5043905;28;20209;-72
2024/01/15 13:56:05;;;;;;;0.40;0.40;;;5.00;99.90;7.10;100276.00;;;;5001991;28;20552;-76
2024/01/15 13:59:09;;;;;;;0.40;0.40;;;4.70;99.90;7.10;100320.00;;;;5028983;28;20220;-76
2024/01/15 14:02:12;;;;;;;1.10;1.00;;;4.50;99.90;6.70;100311.00;;;;5011889;28;20295;-77
2024/01/15 14:05:16;;;;;;;0.50;0.50;;;4.40;99.90;7.10;100320.00;;;;5025604;28;20288;-76
2024/01/15 14:08:12;;;;;;;0.50;0.50;;;4.50;99.90;7.50;100336.00;;;;5044042;28;20181;-76
2024/01/15 14:11:22;;;;;;;0.80;0.80;;;4.60;99.90;7.30;100309.00;;;;4999947;28;20190;-76
2024/01/15 14:14:34;;;;;;;0.50;0.50;;;4.60;99.90;6.00;100314.00;;;;5019216;28;20192;-76
2024/01/15 14:17:38;;;;;;;0.40;0.40;;;4.40;99.90;6.30;100304.00;;;;5022451;28;20178;-75
2024/01/15 14:20:47;;;;;;;0.33;0.33;;;4.10;99.90;5.80;100311.00;;;;5040120;28;20177;-76
2024/01/15 14:24:08;;;;;;;0.50;0.50;;;3.90;99.90;5.20;100293.00;;;;5007894;28;20212;-76
2024/01/15 14:26:59;;;;;;;0.30;0.30;;;3.70;99.90;6.50;100303.00;;;;4992181;28;20213;-76
2024/01/15 14:29:46;;;;;;;0.53;0.53;;;4.00;99.90;7.00;100295.00;;;;4983763;28;20192;-76
2024/01/15 14:32:17;;;;;;;0.30;0.30;;;4.40;99.90;6.50;100307.00;;;;5012637;28;20282;-76
2024/01/15 14:35:08;;;;;;;1.10;1.07;;;4.40;99.90;6.40;100325.00;;;;4991009;28;20185;-76
2024/01/15 14:38:03;;;;;;;0.30;0.30;;;4.40;99.90;7.00;100313.00;;;;4990857;28;20196;-76
2024/01/15 14:40:51;;;;;;;1.13;0.40;;;4.50;99.90;7.10;100313.00;;;;5033270;28;20206;-76
2024/01/15 14:43:38;;;;;;;0.30;0.30;;;4.60;99.90;7.60;100334.00;;;;4960904;28;20206;-76
2024/01/15 14:46:18;;;;;;;0.30;0.30;;;4.80;99.90;8.00;100346.00;;;;4982861;28;20188;-76
2024/01/15 14:49:19;;;;;;;0.77;0.77;;;5.00;99.90;8.00;100345.00;;;;5021459;28;20187;-75
2024/01/15 14:52:38;;;;;;;0.50;0.50;;;5.10;99.90;7.50;100342.00;;;;4978133;28;20214;-76
2024/01/15 14:55:42;;;;;;;0.30;0.30;;;5.10;99.90;7.50;100360.00;;;;4989149;28;20235;-76
2024/01/15 14:58:31;;;;;;;0.40;0.40;;;4.90;99.90;7.10;100361.00;;;;4964633;28;20182;-76
2024/01/15 15:01:06;;;;;;;0.67;0.50;;;4.90;99.90;7.30;100338.00;;;;5016877;28;20210;-76
2024/01/15 15:03:47;;;;;;;0.30;0.30;;;4.80;99.90;7.80;100375.00;;;;5029247;28;20206;-76
2024/01/15 15:06:21;;;;;;;0.30;0.30;;;5.00;99.90;7.60;100386.00;;;;5013793;28;20193;-76
2024/01/15 15:09:00;;;;;;;0.30;0.30;;;5.10;99.90;7.90;100346.00;;;;5050321;28;20186;-76
2024/01/15 15:12:02;;;;;;;0.33;0.33;;;5.20;99.90;8.50;100384.00;;;;5040111;28;20572;-76
2024/01/15 15:14:58;;;;;;;0.30;0.30;;;5.40;99.90;8.00;100347.00;;;;5054230;28;20209;-76
2024/01/15 15:17:34;;;;;;;0.30;0.30;;;5.40;99.90;8.20;100393.00;;;;4964187;28;20247;-76
2024/01/15 15:20:36;;;;;;;2.00;1.90;;;5.40;99.90;8.20;100398.00;;;;4976123;28;20200;-76
2024/01/15 15:23:27;;;;;;;0.30;0.30;;;5.30;99.90;8.30;100390.00;;;;4997714;28;20261;-76
2024/01/15 15:26:10;;;;;;;0.30;0.30;;;5.40;99.90;8.10;100366.00;;;;5056691;28;20651;-76
2024/01/15 15:28:57;;;;;;;0.30;0.30;;;5.40;99.90;7.80;100412.00;;;;5004250;28;20185;-76
2024/01/15 15:32:00;;;;;;;0.30;0.30;;;5.20;99.90;7.90;100426.00;;;;5029630;28;20235;-75
2024/01/15 15:34:44;;;;;;;0.30;0.30;;;5.10;99.90;7.60;100430.00;;;;5028008;28;20194;-75
2024/01/15 15:37:17;;;;;;;0.30;0.30;;;5.00;99.90;7.60;100422.00;;;;5036068;28;20243;-76
2024/01/15 15:40:18;;;;;;;0.30;0.30;;;5.00;99.90;8.00;100438.00;;;;5009846;28;20739;-75
2024/01/15 15:43:02;;;;;;;2.20;1.90;;;5.10;99.90;7.50;100383.00;;;;4977263;28;20222;-76
2024/01/15 15:45:48;;;;;;;4.20;3.10;;;4.90;99.90;7.50;100437.00;;;;5032264;28;20196;-75
2024/01/15 15:48:16;;;;;;;0.20;0.20;;;5.00;99.90;7.80;100437.00;;;;5001703;28;20187;-75
2024/01/15 15:51:07;;;;;;;0.30;0.30;;;5.00;99.90;7.60;100448.00;;;;4986475;28;20603;-75
2024/01/15 15:54:01;;;;;;;0.30;0.30;;;5.00;99.90;7.80;100377.00;;;;4992861;28;20195;-76
2024/01/15 15:56:49;;;;;;;0.50;0.50;;;5.00;99.90;7.40;100467.00;;;;4975964;28;20284;-75
2024/01/15 15:59:27;;;;;;;0.30;0.30;;;5.00;99.90;8.10;100474.00;;;;4984430;28;20242;-76
2024/01/15 16:02:28;;;;;;;0.30;0.30;;;5.10;99.90;8.30;100494.00;;;;5009230;28;20200;-75
2024/01/15 16:04:55;;;;;;;0.30;0.30;;;5.10;99.90;8.10;100482.00;;;;5036325;28;20233;-75
2024/01/15 16:07:28;;;;;;;0.47;0.40;;;5.30;99.90;7.00;100472.00;;;;4969424;28;20543;-75
2024/01/15 16:09:56;;;;;;;0.30;0.30;;;5.00;99.90;6.90;100483.00;;;;4993515;28;20186;-76
2024/01/15 16:12:34;;;;;;;0.20;0.20;;;4.70;99.90;7.60;100493.00;;;;5025736;28;20297;-75
2024/01/15 16:15:20;;;;;;;1.13;1.13;;;4.80;99.90;7.70;100465.00;;;;5003647;28;20187;-76
2024/01/15 16:18:06;;;;;;;1.37;0.83;;;5.00;99.90;7.50;100494.00;;;;4956254;28;20194;-75
2024/01/15 16:20:58;;;;;;;4.73;2.10;;;4.90;99.90;6.50;100449.00;;;;4992224;28;20207;-75
2024/01/15 16:24:02;;;;;;;4.23;0.93;;;4.60;99.90;6.40;100492.00;;;;5060767;28;20182;-75
2024/01/15 16:26:28;;;;;;;0.20;0.20;;;4.40;99.90;7.00;100498.00;;;;4984140;28;20208;-75
2024/01/15 16:28:53;;;;;;;1.10;1.00;;;4.40;99.90;5.50;100488.00;;;;5000988;28;20805;-67
2024/01/15 16:31:28;;;;;;;0.40;0.40;;;3.90;99.90;4.90;100489.00;;;;5042600;28;20287;-72
2024/01/15 16:34:02;;;;;;;1.60;0.77;;;3.50;99.90;5.30;100477.00;;;;5030730;28;20189;-71
2024/01/15 16:36:52;;;;;;;0.40;0.40;;;3.50;99.90;5.90;100482.00;;;;4976759;28;20280;-80
2024/01/15 16:39:50;;;;;;;0.80;0.60;;;3.60;99.90;6.40;100440.00;;;;5015689;28;20190;-75
2024/01/15 16:42:45;;;;;;;0.33;0.33;;;3.80;99.90;6.30;100510.00;;;;5036094;28;20173;-74
2024/01/15 16:45:48;;;;;;;1.23;1.23;;;3.90;99.90;6.80;100518.00;;;;5010094;28;20200;-75
2024/01/15 16:48:28;;;;;;;0.30;0.30;;;4.20;99.90;7.00;100518.00;;;;5039229;28;20191;-81
2024/01/15 16:51:38;;;;;;;0.50;0.50;;;4.20;99.90;7.20;100544.00;;;;5058234;28;20206;-74
2024/01/15 16:54:41;;;;;;;0.40;0.40;;;4.40;99.90;6.80;100540.00;;;;4998446;28;20192;-73
2024/01/15 16:57:50;;;;;;;0.37;0.37;;;4.40;99.90;7.00;100537.00;;;;5029509;28;20173;-76
2024/01/15 17:00:29;;;;;;;0.40;0.40;;;4.10;99.90;7.30;100563.00;;;;5034103;28;20635;-75
2024/01/15 17:03:01;;;;;;;0.60;0.60;;;4.40;99.90;7.10;100565.00;;;;5015013;28;20342;-76
2024/01/15 17:05:26;;;;;;;2.77;1.17;;;4.40;99.90;6.40;100466.00;;;;5007130;28;20192;-77
2024/01/15 17:07:55;;;;;;;0.67;0.50;;;4.20;99.90;4.90;100518.00;;;;5016737;28;20241;-76
2024/01/15 17:10:44;;;;;;;0.70;0.70;;;3.80;99.90;4.50;100508.00;;;;5003084;28;20211;-77
2024/01/15 17:13:34;;;;;;;0.30;0.30;;;3.10;99.90;4.40;100509.00;;;;4972143;28;20231;-77
2024/01/15 17:16:55;;;;;;;0.40;0.40;;;2.80;99.90;4.10;100470.00;;;;5017827;28;20278;-78
2024/01/15 17:19:46;;;;;;;2.30;1.43;;;2.80;99.90;4.60;100486.00;;;;4950878;28;21203;-77
2024/01/15 17:22:49;;;;;;;0.40;0.40;;;2.80;99.90;5.10;100509.00;;;;4966972;28;20214;-81
2024/01/15 17:25:47;;;;;;;0.93;0.50;;;2.90;99.90;5.20;100519.00;;;;4979646;28;20303;-80
2024/01/15 17:28:56;;;;;;;0.60;0.60;;;3.00;99.90;5.20;100510.00;;;;4977491;28;20658;-80
2024/01/15 17:31:35;;;;;;;0.83;0.83;;;3.10;99.90;5.40;100497.00;;;;4979425;28;20674;-81
2024/01/15 17:34:42;;;;;;;0.67;0.67;;;3.10;99.90;5.70;100506.00;;;;5008736;28;20188;-81
2024/01/15 17:37:51;;;;;;;3.30;1.43;;;3.20;99.90;5.10;100515.00;;;;5036090;28;20193;-76
2024/01/15 17:40:55;;;;;;;1.60;1.13;;;3.20;99.90;4.30;100496.00;;;;4970645;28;20184;-79
2024/01/15 17:44:06;;;;;;;2.77;2.57;;;2.70;99.90;3.90;100496.00;;;;4966163;28;20628;-79
2024/01/15 17:47:07;;;;;;;1.60;0.80;;;2.40;99.90;3.60;100495.00;;;;4996537;28;20243;-79
2024/01/15 17:49:58;;;;;;;0.70;0.70;;;2.40;99.90;3.90;100486.00;;;;4972103;28;20636;-78
2024/01/15 17:52:41;;;;;;;0.93;0.93;;;2.20;99.90;4.40;100488.00;;;;4967735;28;20201;-80
2024/01/15 17:55:27;;;;;;;2.00;1.83;;;2.40;99.90;3.50;100500.00;;;;4970973;28;20195;-78
2024/01/15 17:58:30;;;;;;;2.17;1.97;;;2.30;99.90;4.10;100462.00;;;;5054872;28;20181;-79
2024/01/15 18:01:19;;;;;;;0.70;0.70;;;2.30;99.90;4.50;100479.00;;;;4980972;28;20678;-78
2024/01/15 18:04:05;;;;;;;2.00;1.80;;;2.40;99.90;4.00;100478.00;;;;4984606;28;20272;-77
2024/01/15 18:06:51;;;;;;;0.90;0.90;;;2.40;99.90;3.50;100419.00;;;;4964916;28;20207;-76
2024/01/15 18:09:38;;;;;;;2.00;1.37;;;2.30;99.90;4.00;100491.00;;;;4964170;28;20181;-76
2024/01/15 18:12:24;;;;;;;2.27;1.70;;;2.40;99.90;4.00;100512.00;;;;5038395;28;20197;-74
2024/01/15 18:15:02;;;;;;;1.60;1.50;;;2.40;99.90;3.70;100508.00;;;;4992489;28;20230;-74
2024/01/15 18:17:48;;;;;;;1.60;1.50;;;2.40;99.90;4.20;100447.00;;;;5022235;28;20279;-74
2024/01/15 18:20:51;;;;;;;2.03;1.93;;;2.60;99.90;4.20;100521.00;;;;5045641;28;20388;-73
2024/01/15 18:23:26;;;;;;;0.83;0.83;;;2.60;99.90;4.60;100529.00;;;;5000072;28;20643;-74
2024/01/15 18:25:57;;;;;;;1.93;1.70;;;2.70;99.90;4.30;100460.00;;;;5022606;28;20188;-73
2024/01/15 18:28:48;;;;;;;1.57;1.47;;;2.70;99.90;4.60;100525.00;;;;5046941;28;20523;-73
2024/01/15 18:31:57;;;;;;;1.07;1.07;;;2.80;99.90;4.90;100538.00;;;;5011407;28;20193;-74
2024/01/15 18:35:39;;;;;;;1.40;1.30;;;2.90;99.90;5.30;100550.00;;;;5003792;28;20213;-74
2024/01/15 18:38:42;;;;;;;2.90;2.10;;;3.00;99.90;4.60;100553.00;;;;5047657;28;20242;-76
2024/01/15 18:41:46;;;;;;;9.47;2.63;;;3.00;99.90;4.70;100545.00;;;;5023902;28;20197;-73
2024/01/15 18:44:15;;;;;;;1.10;1.10;;;2.90;99.90;4.40;100560.00;;;;4976250;28;20192;-74
2024/01/15 18:47:33;;;;;;;0.87;0.87;;;2.90;99.90;4.90;100550.00;;;;4996014;28;20283;-73
2024/01/15 18:50:37;;;;;;;1.30;1.30;;;2.80;99.90;4.90;100563.00;;;;5055705;28;20227;-76
2024/01/15 18:53:56;;;;;;;1.77;1.67;;;3.00;99.90;5.10;100577.00;;;;5005501;28;20358;-73
2024/01/15 18:57:20;;;;;;;1.37;1.37;;;3.00;99.90;4.50;100512.00;;;;5036120;28;20193;-73
2024/01/15 19:00:18;;;;;;;3.40;2.40;;;3.00;99.90;4.50;100577.00;;;;4975027;28;20241;-74
2024/01/15 19:03:09;;;;;;;1.00;1.00;;;3.10;99.90;4.90;100572.00;;;;4980471;28;20193;-73
2024/01/15 19:06:31;;;;;;;1.77;1.73;;;3.10;99.90;5.00;100595.00;;;;5024843;28;20243;-73
2024/01/15 19:09:17;;;;;;;1.77;1.70;;;3.20;99.90;4.80;100576.00;;;;4983102;28;20196;-73
2024/01/15 19:12:08;;;;;;;2.00;1.90;;;3.10;99.90;4.60;100588.00;;;;5017683;28;20640;-73
2024/01/15 19:15:17;;;;;;;2.83;2.13;;;3.00;99.90;4.70;100595.00;;;;5045925;28;20231;-73
2024/01/15 19:18:02;;;;;;;1.10;1.07;;;3.10;99.90;5.30;100598.00;;;;4976566;28;20674;-76
2024/01/15 19:20:45;;;;;;;1.23;1.23;;;3.20;99.90;5.00;100527.00;;;;5000939;28;20446;-76
2024/01/15 19:23:54;;;;;;;0.80;0.80;;;3.30;99.90;5.90;100591.00;;;;4981392;28;20196;-74
2024/01/15 19:26:35;;;;;;;0.83;0.83;;;3.40;99.90;5.40;100615.00;;;;4991979;28;20199;-76
2024/01/15 19:29:38;;;;;;;2.13;2.10;;;3.40;99.90;5.50;100612.00;;;;4975907;28;20219;-75
2024/01/15 19:32:29;;;;;;;0.90;0.90;;;3.50;99.90;5.30;100600.00;;;;4984534;28;20697;-73
2024/01/15 19:36:06;;;;;;;1.50;1.40;;;3.30;99.90;5.80;100563.00;;;;5016491;28;20182;-76
2024/01/15 19:39:09;;;;;;;1.93;1.83;;;3.50;99.90;6.20;100631.00;;;;5015676;28;20185;-76
2024/01/15 19:42:00;;;;;;;1.00;1.00;;;3.70;99.90;5.60;100621.00;;;;4995866;28;20189;-76
2024/01/15 19:44:30;;;;;;;3.67;2.00;;;3.70;99.90;5.40;100632.00;;;;5000252;28;20193;-73
2024/01/15 19:46:56;;;;;;;0.80;0.80;;;3.60;99.90;5.40;100621.00;;;;5048431;28;20652;-74
2024/01/15 19:49:47;;;;;;;2.33;2.13;;;3.50;99.90;5.50;100619.00;;;;5024702;28;20216;-76
2024/01/15 19:52:14;;;;;;;0.90;0.90;;;3.40;99.90;5.80;100559.00;;;;5001772;28;20223;-76
2024/01/15 19:55:13;;;;;;;1.30;1.30;;;3.60;99.90;5.50;100623.00;;;;5015587;28;20193;-75
2024/01/15 19:57:40;;;;;;;0.70;0.70;;;3.60;99.90;5.50;100632.00;;;;5045759;28;20223;-74
2024/01/15 20:00:36;;;;;;;7.80;1.93;;;3.50;99.90;5.60;100638.00;;;;4989758;28;20291;-76
2024/01/15 20:03:10;;;;;;;0.70;0.70;;;3.50;99.90;6.70;100648.00;;;;4971988;28;20231;-73
2024/01/15 20:06:14;;;;;;;1.43;1.37;;;3.90;99.90;6.70;100657.00;;;;4945130;28;20228;-74
2024/01/15 20:09:31;;;;;;;0.70;0.70;;;4.00;99.90;6.70;100666.00;;;;4957646;28;20518;-73
2024/01/15 20:12:01;;;;;;;2.97;2.10;;;4.20;99.90;6.50;100663.00;;;;4983633;28;20213;-74
2024/01/15 20:14:50;;;;;;;1.30;1.00;;;4.20;99.90;5.90;100648.00;;;;4962910;28;20189;-76
2024/01/15 20:17:44;;;;;;;0.93;0.93;;;3.90;99.90;6.80;100670.00;;;;5014584;28;20663;-76
2024/01/15 20:20:27;;;;;;;1.30;1.30;;;4.00;99.90;5.90;100601.00;;;;4980407;28;20216;-76
2024/01/15 20:23:17;;;;;;;2.13;1.43;;;3.80;99.90;6.30;100670.00;;;;4989266;28;20305;-76